Time;durP1;ratioP1;P1;durP2;ratioP2;P2;SDS_P1;SDS_P2;PMS_P1;PMS_P2;Temp;Humidity;BMP_temperature;BMP_pressure;BME280_temperature;BME280_humidity;BME280_pressure;Samples;Min_cycle;Max_cycle;Signal;HPM_P1;HPM_P2
2024/03/11 00:01:24;;;;;;;25.77;11.53;;;;;;;7.05;48.03;100829.03;123649;1099;104377;-80
2024/03/11 00:03:56;;;;;;;23.73;11.03;;;;;;;7.05;48.17;100827.31;123950;1099;104242;-80
2024/03/11 00:06:27;;;;;;;25.55;11.20;;;;;;;7.02;48.52;100822.81;124079;1099;104233;-81
2024/03/11 00:08:58;;;;;;;24.53;11.27;;;;;;;7.02;48.41;100829.75;124036;1098;104370;-81
2024/03/11 00:11:30;;;;;;;25.57;10.73;;;;;;;7.00;48.69;100826.17;124128;1099;104373;-81
2024/03/11 00:14:06;;;;;;;24.40;10.93;;;;;;;6.97;48.65;100826.00;124194;1098;104242;-81
2024/03/11 00:16:37;;;;;;;23.95;10.25;;;;;;;6.96;48.61;100832.02;124064;1099;104329;-80
2024/03/11 00:19:08;;;;;;;25.53;10.77;;;;;;;6.96;49.08;100832.02;124221;1099;104312;-81
2024/03/11 00:21:40;;;;;;;25.10;11.37;;;;;;;6.96;48.85;100838.13;124230;1099;104303;-79
2024/03/11 00:24:11;;;;;;;25.70;11.17;;;;;;;6.98;49.05;100836.52;124076;1099;104265;-79
2024/03/11 00:26:43;;;;;;;25.40;11.00;;;;;;;6.99;49.26;100840.91;124279;1099;104373;-80
2024/03/11 00:29:15;;;;;;;22.93;11.00;;;;;;;7.00;49.33;100849.65;124211;1099;104220;-79
2024/03/11 00:31:47;;;;;;;23.77;11.67;;;;;;;7.01;49.03;100846.20;124148;1099;104275;-80
2024/03/11 00:34:18;;;;;;;25.43;10.87;;;;;;;7.00;49.27;100847.93;124292;1099;104242;-80
2024/03/11 00:36:49;;;;;;;22.73;10.97;;;;;;;6.99;49.49;100848.73;124769;1099;104242;-80
2024/03/11 00:39:24;;;;;;;24.43;11.07;;;;;;;6.98;49.71;100846.95;124894;1099;104181;-80
2024/03/11 00:41:56;;;;;;;24.25;10.90;;;;;;;6.98;49.63;100848.64;126159;1099;104169;-80
2024/03/11 00:44:27;;;;;;;25.20;11.50;;;;;;;6.96;49.81;100847.67;124787;1099;104347;-80
2024/03/11 00:46:58;;;;;;;25.00;10.97;;;;;;;6.95;50.14;100845.86;124612;1099;104347;-80
2024/03/11 00:49:29;;;;;;;26.00;12.00;;;;;;;6.91;50.01;100844.80;124602;1099;104190;-80
2024/03/11 00:52:00;;;;;;;23.20;11.10;;;;;;;6.92;50.32;100837.87;124490;1098;104223;-80
2024/03/11 00:54:32;;;;;;;24.00;11.40;;;;;;;6.89;50.23;100842.91;124009;1099;104350;-80
2024/03/11 00:57:05;;;;;;;23.03;10.87;;;;;;;6.89;50.23;100841.22;124030;1099;104320;-80
2024/03/11 00:59:37;;;;;;;25.77;11.80;;;;;;;6.89;50.38;100838.61;123956;1099;104281;-80
2024/03/11 01:02:09;;;;;;;23.60;11.50;;;;;;;6.90;50.50;100842.11;123740;1099;104261;-80
2024/03/11 01:04:42;;;;;;;25.07;11.90;;;;;;;6.89;50.73;100832.48;124163;1099;104271;-80
2024/03/11 01:07:13;;;;;;;26.30;11.97;;;;;;;6.89;50.86;100842.91;124238;1098;104281;-79
2024/03/11 01:09:44;;;;;;;25.07;11.93;;;;;;;6.84;51.04;100833.14;124007;1099;104450;-80
2024/03/11 01:12:16;;;;;;;27.73;12.17;;;;;;;6.83;51.03;100838.27;124089;1099;104271;-80
2024/03/11 01:14:47;;;;;;;23.45;11.35;;;;;;;6.79;51.24;100839.81;124136;1098;104226;-80
2024/03/11 01:17:18;;;;;;;26.33;11.90;;;;;;;6.76;51.37;100834.42;124126;1099;104277;-80
2024/03/11 01:19:52;;;;;;;25.43;12.07;;;;;;;6.73;51.86;100839.47;124262;1098;104267;-82
2024/03/11 01:22:23;;;;;;;26.60;12.03;;;;;;;6.68;51.93;100840.02;124146;1099;104351;-80
2024/03/11 01:24:59;;;;;;;26.07;12.93;;;;;;;6.64;51.84;100838.95;124139;1099;104211;-80
2024/03/11 01:27:33;;;;;;;26.00;11.80;;;;;;;6.62;51.96;100846.69;124111;1099;104345;-80
2024/03/11 01:30:07;;;;;;;24.43;12.60;;;;;;;6.58;52.38;100835.99;124158;1099;104271;-80
2024/03/11 01:32:41;;;;;;;26.62;12.35;;;;;;;6.55;51.96;100839.31;124252;1099;104363;-80
2024/03/11 01:35:13;;;;;;;30.00;12.87;;;;;;;6.52;52.32;100844.34;124427;1099;104267;-80
2024/03/11 01:37:45;;;;;;;26.70;12.10;;;;;;;6.51;52.57;100846.86;124281;1099;104350;-80
2024/03/11 01:40:16;;;;;;;27.70;12.60;;;;;;;6.51;52.86;100845.15;124159;1099;104255;-81
2024/03/11 01:42:47;;;;;;;27.47;13.40;;;;;;;6.48;53.26;100848.50;124154;1099;104252;-80
2024/03/11 01:45:19;;;;;;;25.73;12.33;;;;;;;6.47;52.86;100845.80;124174;1099;104350;-79
2024/03/11 01:47:52;;;;;;;28.03;13.57;;;;;;;6.47;52.81;100846.69;124175;1099;104370;-81
2024/03/11 01:50:23;;;;;;;24.10;12.20;;;;;;;6.47;53.27;100845.80;124150;1099;104315;-80
2024/03/11 01:52:58;;;;;;;26.13;12.67;;;;;;;6.45;53.37;100853.53;124049;1099;104357;-80
2024/03/11 01:55:31;;;;;;;30.30;13.17;;;;;;;6.43;53.54;100857.73;124075;1098;104267;-81
2024/03/11 01:58:04;;;;;;;30.83;12.93;;;;;;;6.43;53.51;100865.56;124165;1098;104271;-80
2024/03/11 02:00:35;;;;;;;28.57;13.33;;;;;;;6.43;54.56;100860.34;123922;1099;104723;-80
2024/03/11 02:03:07;;;;;;;27.33;12.93;;;;;;;6.41;55.53;100864.58;124203;1099;104422;-80
2024/03/11 02:05:41;;;;;;;29.35;13.15;;;;;;;6.36;57.12;100868.64;124126;1099;104344;-80
2024/03/11 02:08:12;;;;;;;28.90;14.53;;;;;;;6.26;57.96;100872.42;124162;1099;104268;-80
2024/03/11 02:10:47;;;;;;;27.90;13.87;;;;;;;6.19;57.75;100885.00;124003;1099;104165;-80
2024/03/11 02:13:20;;;;;;;32.50;14.37;;;;;;;6.14;56.96;100881.19;124140;1099;104331;-81
2024/03/11 02:15:52;;;;;;;29.13;13.70;;;;;;;6.14;56.62;100887.33;124014;1099;104326;-81
2024/03/11 02:18:23;;;;;;;30.65;13.10;;;;;;;6.16;57.11;100895.23;124002;1099;104267;-81
2024/03/11 02:20:54;;;;;;;29.37;13.93;;;;;;;6.15;57.03;100898.64;123783;1099;104316;-81
2024/03/11 02:23:26;;;;;;;31.70;14.47;;;;;;;6.16;57.13;100900.45;124081;1099;104257;-82
2024/03/11 02:25:57;;;;;;;27.87;14.27;;;;;;;6.17;56.96;100897.02;123970;1099;104362;-80
2024/03/11 02:28:28;;;;;;;30.73;14.00;;;;;;;6.16;57.19;100895.23;123710;1099;104405;-81
2024/03/11 02:31:00;;;;;;;28.83;13.30;;;;;;;6.13;58.84;100903.76;123941;1099;104347;-79
2024/03/11 02:33:32;;;;;;;30.77;12.97;;;;;;;6.06;58.54;100901.58;124039;1099;104165;-80
2024/03/11 02:36:04;;;;;;;28.40;13.47;;;;;;;5.99;58.47;100905.53;124044;1099;104358;-81
2024/03/11 02:38:37;;;;;;;29.60;13.83;;;;;;;5.95;57.74;100900.89;124071;1099;104316;-81
2024/03/11 02:41:08;;;;;;;25.37;12.73;;;;;;;5.93;58.13;100902.52;124096;1099;104221;-81
2024/03/11 02:43:39;;;;;;;26.43;13.13;;;;;;;5.89;58.49;100906.66;124010;1099;104348;-80
2024/03/11 02:46:10;;;;;;;28.53;13.03;;;;;;;5.85;59.61;100903.77;124078;1099;105498;-81
2024/03/11 02:48:43;;;;;;;31.23;14.73;;;;;;;5.78;60.83;100909.39;124021;1099;104322;-80
2024/03/11 02:51:16;;;;;;;29.20;13.90;;;;;;;5.64;59.29;100903.33;124074;1099;104349;-80
2024/03/11 02:53:47;;;;;;;29.77;13.70;;;;;;;5.58;58.63;100903.88;123996;1099;104354;-80
2024/03/11 02:56:19;;;;;;;29.20;13.60;;;;;;;5.54;58.76;100907.96;124011;1099;104248;-80
2024/03/11 02:58:50;;;;;;;27.83;13.17;;;;;;;5.55;58.47;100903.68;124016;1099;104295;-81
2024/03/11 03:01:22;;;;;;;31.00;13.40;;;;;;;5.58;58.30;100916.89;124177;1099;104711;-82
2024/03/11 03:03:54;;;;;;;27.73;13.43;;;;;;;5.60;58.41;100923.08;124057;1099;104293;-81
2024/03/11 03:06:26;;;;;;;26.73;12.87;;;;;;;5.62;58.48;100925.78;124026;1099;104361;-81
2024/03/11 03:08:58;;;;;;;28.87;13.97;;;;;;;5.64;58.54;100926.77;124124;1099;104239;-80
2024/03/11 03:11:29;;;;;;;28.10;13.03;;;;;;;5.63;58.06;100925.88;124056;1098;104207;-81
2024/03/11 03:14:00;;;;;;;30.53;14.33;;;;;;;5.59;59.10;100926.48;124154;1098;104174;-80
2024/03/11 03:16:31;;;;;;;27.53;13.43;;;;;;;5.56;58.82;100929.81;124048;1099;104741;-81
2024/03/11 03:19:02;;;;;;;28.23;13.30;;;;;;;5.55;58.92;100929.71;124039;1099;104178;-81
2024/03/11 03:21:35;;;;;;;30.07;14.40;;;;;;;5.55;58.80;100934.92;123777;1099;104249;-80
2024/03/11 03:24:07;;;;;;;31.57;14.63;;;;;;;5.56;59.28;100936.70;123967;1099;104459;-81
2024/03/11 03:26:38;;;;;;;30.00;14.37;;;;;;;5.57;59.12;100938.50;123987;1099;104290;-79
2024/03/11 03:29:11;;;;;;;30.10;15.20;;;;;;;5.57;59.14;100941.11;124092;1099;117829;-81
2024/03/11 03:31:42;;;;;;;32.10;14.93;;;;;;;5.56;58.93;100942.83;124089;1099;104297;-79
2024/03/11 03:34:13;;;;;;;31.10;14.40;;;;;;;5.59;58.87;100947.30;124165;1099;104291;-81
2024/03/11 03:36:45;;;;;;;29.20;14.23;;;;;;;5.60;59.12;100946.51;124108;1098;104347;-82
2024/03/11 03:39:17;;;;;;;29.13;14.40;;;;;;;5.59;59.00;100944.70;123757;1098;104277;-82
2024/03/11 03:41:50;;;;;;;28.53;13.43;;;;;;;5.58;59.49;100950.73;124189;1099;104262;-82
2024/03/11 03:44:21;;;;;;;27.90;13.70;;;;;;;5.59;59.72;100957.72;124035;1099;104358;-80
2024/03/11 03:46:55;;;;;;;28.37;14.53;;;;;;;5.61;59.35;100947.40;123865;1099;104236;-80
2024/03/11 03:49:27;;;;;;;30.30;15.45;;;;;;;5.62;59.63;100957.91;124103;1098;104309;-80
2024/03/11 03:51:59;;;;;;;28.93;14.30;;;;;;;5.66;59.44;100953.81;124233;1099;104345;-80
2024/03/11 03:54:30;;;;;;;32.23;15.50;;;;;;;5.65;59.77;100954.61;124063;1099;104287;-79
2024/03/11 03:57:02;;;;;;;30.20;15.70;;;;;;;5.65;59.95;100963.31;123993;1099;104479;-80
2024/03/11 03:59:33;;;;;;;29.75;14.70;;;;;;;5.67;60.14;100963.41;124079;1099;104727;-81
2024/03/11 04:02:04;;;;;;;31.90;14.83;;;;;;;5.66;60.63;100964.23;124026;1099;104644;-80
2024/03/11 04:04:38;;;;;;;29.93;14.97;;;;;;;5.63;60.56;100958.83;123884;1099;104294;-80
2024/03/11 04:07:10;;;;;;;32.55;15.83;;;;;;;5.62;60.98;100965.72;124083;1099;104219;-81
2024/03/11 04:09:41;;;;;;;32.37;14.83;;;;;;;5.65;61.24;100968.52;124074;1099;104313;-81
2024/03/11 04:12:12;;;;;;;32.13;15.17;;;;;;;5.66;62.19;100965.13;124142;1099;104357;-81
2024/03/11 04:14:44;;;;;;;31.67;14.87;;;;;;;5.62;61.03;100967.44;124056;1099;104188;-81
2024/03/11 04:17:16;;;;;;;28.70;14.57;;;;;;;5.60;61.88;100979.47;123798;1099;104490;-80
2024/03/11 04:19:48;;;;;;;30.80;13.53;;;;;;;5.57;64.48;100970.64;124199;1099;104408;-80
2024/03/11 04:22:20;;;;;;;30.10;13.90;;;;;;;5.51;64.15;100972.84;124207;1099;104296;-79
2024/03/11 04:24:51;;;;;;;29.60;14.53;;;;;;;5.47;64.05;100978.69;124277;1099;104683;-81
2024/03/11 04:27:22;;;;;;;29.27;14.60;;;;;;;5.47;66.43;100983.89;124099;1099;104392;-82
2024/03/11 04:29:53;;;;;;;34.93;16.60;;;;;;;5.42;64.33;100984.38;124253;1099;104363;-81
2024/03/11 04:32:25;;;;;;;34.10;15.67;;;;;;;5.41;64.78;100993.91;124014;1099;104395;-81
2024/03/11 04:34:56;;;;;;;31.63;15.80;;;;;;;5.40;64.58;100990.38;124004;1099;104501;-80
2024/03/11 04:37:27;;;;;;;34.27;15.67;;;;;;;5.42;64.52;101000.00;124150;1099;104165;-82
2024/03/11 04:39:59;;;;;;;34.00;15.07;;;;;;;5.42;65.77;100986.98;124161;1099;104619;-81
2024/03/11 04:42:30;;;;;;;31.93;15.97;;;;;;;5.42;65.06;100994.80;124124;1099;104271;-80
2024/03/11 04:45:01;;;;;;;30.70;16.30;;;;;;;5.42;64.69;100995.69;124052;1099;104194;-80
2024/03/11 04:47:32;;;;;;;30.83;15.00;;;;;;;5.43;65.39;100999.21;124090;1099;104392;-81
2024/03/11 04:50:05;;;;;;;30.60;15.07;;;;;;;5.40;65.65;100992.98;124109;1099;104332;-79
2024/03/11 04:52:37;;;;;;;33.60;15.30;;;;;;;5.38;67.60;100999.80;124192;1099;104338;-80
2024/03/11 04:55:09;;;;;;;29.80;14.25;;;;;;;5.38;66.70;101009.33;124104;1099;104357;-81
2024/03/11 04:57:41;;;;;;;30.40;15.30;;;;;;;5.40;65.45;101019.02;124303;1098;104396;-81
2024/03/11 05:00:14;;;;;;;32.60;15.30;;;;;;;5.46;67.82;101030.64;123994;1099;104709;-80
2024/03/11 05:02:45;;;;;;;29.73;14.70;;;;;;;5.47;66.23;101046.36;124016;1099;104326;-81
2024/03/11 05:05:16;;;;;;;32.00;15.13;;;;;;;5.49;66.23;101034.34;124125;1099;104277;-80
2024/03/11 05:07:49;;;;;;;30.53;14.77;;;;;;;5.51;67.33;101044.84;124365;1099;104252;-81
2024/03/11 05:10:21;;;;;;;31.80;14.55;;;;;;;5.50;69.26;101050.84;124276;1099;104389;-80
2024/03/11 05:12:52;;;;;;;35.70;16.15;;;;;;;5.49;67.70;101062.08;124202;1099;104348;-81
2024/03/11 05:15:25;;;;;;;31.70;14.97;;;;;;;5.49;67.43;101055.16;124279;1098;104220;-80
2024/03/11 05:17:57;;;;;;;31.17;15.28;;;;;;;5.52;67.52;101055.36;124232;1099;104245;-80
2024/03/11 05:20:28;;;;;;;30.90;15.03;;;;;;;5.56;68.31;101061.66;124335;1099;104264;-81
2024/03/11 05:22:59;;;;;;;29.97;15.00;;;;;;;5.57;67.94;101068.67;124323;1098;104268;-79
2024/03/11 05:25:31;;;;;;;29.50;14.80;;;;;;;5.57;68.39;101069.56;124262;1099;104242;-81
2024/03/11 05:28:02;;;;;;;31.97;15.63;;;;;;;5.58;67.81;101081.79;124215;1099;104252;-80
2024/03/11 05:30:33;;;;;;;33.37;15.60;;;;;;;5.60;68.16;101076.69;124304;1099;104287;-81
2024/03/11 05:33:05;;;;;;;35.60;15.50;;;;;;;5.64;67.34;101080.38;124291;1099;104347;-80
2024/03/11 05:35:36;;;;;;;31.30;15.07;;;;;;;5.66;67.22;101092.70;124386;1099;104329;-80
2024/03/11 05:38:10;;;;;;;30.10;15.67;;;;;;;5.70;67.28;101094.72;124513;1099;104303;-80
2024/03/11 05:40:43;;;;;;;35.05;16.10;;;;;;;5.74;66.90;101101.91;124433;1098;104174;-81
2024/03/11 05:43:14;;;;;;;35.03;16.83;;;;;;;5.79;67.32;101096.10;124439;1099;104252;-81
2024/03/11 05:45:47;;;;;;;36.73;16.43;;;;;;;5.80;67.92;101109.22;124264;1099;104244;-81
2024/03/11 05:48:19;;;;;;;34.40;16.83;;;;;;;5.80;67.37;101109.22;124539;1099;104417;-80
2024/03/11 05:50:52;;;;;;;33.83;17.27;;;;;;;5.78;67.44;101113.45;124612;1099;104401;-80
2024/03/11 05:53:23;;;;;;;30.80;16.90;;;;;;;5.79;67.64;101119.54;124625;1099;104242;-81
2024/03/11 05:55:55;;;;;;;30.70;15.90;;;;;;;5.81;68.18;101117.92;124824;1099;102294;-80
2024/03/11 05:58:28;;;;;;;33.60;17.00;;;;;;;5.80;67.90;101116.11;125083;1098;102342;-81
2024/03/11 06:00:59;;;;;;;34.97;16.53;;;;;;;5.82;67.80;101122.34;124910;1099;103702;-81
2024/03/11 06:03:31;;;;;;;31.90;16.80;;;;;;;5.83;68.43;101124.13;124814;1099;104846;-81
2024/03/11 06:06:03;;;;;;;33.73;16.87;;;;;;;5.86;67.77;101139.95;124944;1099;103867;-81
2024/03/11 06:08:34;;;;;;;30.47;15.60;;;;;;;5.87;69.16;101134.84;124799;1099;104169;-80
2024/03/11 06:11:17;;;;;;;31.47;15.43;;;;;;;5.90;68.46;101139.36;124803;1099;104223;-81
2024/03/11 06:13:52;;;;;;;35.73;18.17;;;;;;;5.91;67.90;101138.57;125460;1099;104242;-81
2024/03/11 06:16:25;;;;;;;36.43;17.57;;;;;;;5.95;68.63;101145.76;125158;1099;104709;-80
2024/03/11 06:18:58;;;;;;;32.30;16.37;;;;;;;5.98;67.99;101143.39;125226;1099;104782;-81
2024/03/11 06:21:30;;;;;;;38.40;17.15;;;;;;;5.98;70.02;101159.02;125180;1099;104241;-80
2024/03/11 06:24:01;;;;;;;39.07;17.93;;;;;;;5.95;68.81;101158.78;125078;1099;104329;-80
2024/03/11 06:26:35;;;;;;;37.63;18.07;;;;;;;5.92;68.79;101154.30;125287;1099;103217;-80
2024/03/11 06:29:09;;;;;;;;;;;;;;;5.90;71.39;101163.70;125209;1099;104222;-80
2024/03/11 06:31:40;;;;;;;36.47;17.70;;;;;;;5.90;69.08;101166.30;125264;1099;102447;-79
2024/03/11 06:34:14;;;;;;;33.30;16.30;;;;;;;5.92;69.41;101158.59;125072;1099;104174;-79
2024/03/11 06:36:48;;;;;;;34.40;16.75;;;;;;;5.93;70.08;101153.47;125222;1099;104166;-79
2024/03/11 06:39:24;;;;;;;34.10;17.53;;;;;;;5.92;69.40;101156.91;125201;1099;103734;-80
2024/03/11 06:41:56;;;;;;;35.67;16.43;;;;;;;5.92;70.18;101150.77;124980;1099;104172;-79
2024/03/11 06:44:28;;;;;;;32.53;16.50;;;;;;;5.93;69.68;101168.21;125168;1099;104304;-81
2024/03/11 06:47:01;;;;;;;38.87;17.97;;;;;;;5.93;69.93;101163.00;125155;1099;104201;-80
2024/03/11 06:49:32;;;;;;;38.87;18.80;;;;;;;5.94;69.88;101168.31;124640;1099;102105;-81
2024/03/11 06:52:05;;;;;;;39.90;19.93;;;;;;;5.97;72.11;101162.45;125113;1099;102781;-80
2024/03/11 06:54:40;;;;;;;35.87;18.20;;;;;;;5.96;70.59;101170.13;125210;1099;101974;-79
2024/03/11 06:57:12;;;;;;;38.30;19.73;;;;;;;5.96;71.60;101163.20;125100;1099;102304;-80
2024/03/11 06:59:45;;;;;;;39.70;20.40;;;;;;;5.96;70.58;101172.73;125243;1099;104274;-80
2024/03/11 07:02:20;;;;;;;41.45;21.75;;;;;;;5.97;70.73;101180.69;125343;1099;104185;-80
2024/03/11 07:04:51;;;;;;;42.53;19.53;;;;;;;6.01;71.02;101182.66;125293;1099;104301;-80
2024/03/11 07:07:24;;;;;;;36.73;18.47;;;;;;;6.03;70.98;101175.87;125329;1098;104072;-80
2024/03/11 07:09:56;;;;;;;37.33;18.13;;;;;;;6.02;70.93;101167.95;125325;1099;104262;-80
2024/03/11 07:12:27;;;;;;;34.70;18.30;;;;;;;6.02;72.12;101170.56;125208;1099;102292;-78
2024/03/11 07:15:02;;;;;;;35.83;18.37;;;;;;;6.01;71.42;101174.84;124853;1099;104300;-77
2024/03/11 07:17:38;;;;;;;41.27;19.60;;;;;;;6.02;71.42;101174.05;125107;1099;102823;-78
2024/03/11 07:20:14;;;;;;;38.60;19.07;;;;;;;6.04;72.29;101177.66;124973;1099;102684;-78
2024/03/11 07:22:45;;;;;;;;;;;;;;;6.03;72.31;101168.05;125118;1099;104242;-78
2024/03/11 07:25:21;;;;;;;39.37;19.20;;;;;;;6.06;72.52;101167.33;125210;1099;103184;-79
2024/03/11 07:27:54;;;;;;;38.13;19.10;;;;;;;6.06;72.08;101168.25;125123;1100;104169;-78
2024/03/11 07:30:27;;;;;;;36.00;18.73;;;;;;;6.11;71.70;101163.34;125249;1098;104359;-79
2024/03/11 07:33:09;;;;;;;36.53;19.30;;;;;;;6.16;71.91;101168.84;124973;1099;104176;-79
2024/03/11 07:35:42;;;;;;;39.33;18.80;;;;;;;6.17;72.31;101168.02;124482;1098;104245;-78
2024/03/11 07:38:14;;;;;;;34.83;18.90;;;;;;;6.18;72.71;101162.02;124362;1099;104338;-78
2024/03/11 07:40:46;;;;;;;38.93;19.60;;;;;;;6.20;72.08;101163.92;124881;1098;104255;-78
2024/03/11 07:43:17;;;;;;;38.83;21.40;;;;;;;6.19;72.46;101172.54;124925;1098;104371;-78
2024/03/11 07:45:48;;;;;;;37.90;19.47;;;;;;;6.25;71.66;101165.11;124999;1099;104239;-78
2024/03/11 07:48:22;;;;;;;37.97;19.40;;;;;;;6.30;71.72;101171.52;125072;1099;104242;-78
2024/03/11 07:50:55;;;;;;;38.20;19.20;;;;;;;6.35;71.69;101173.52;124873;1099;102778;-79
2024/03/11 07:53:26;;;;;;;36.33;18.57;;;;;;;6.40;72.52;101175.59;124833;1099;104334;-79
2024/03/11 07:55:58;;;;;;;37.90;20.80;;;;;;;6.47;71.99;101171.69;125511;1099;103053;-78
2024/03/11 07:58:37;;;;;;;39.97;20.47;;;;;;;6.56;71.98;101176.56;125111;1099;104463;-78
2024/03/11 08:01:08;;;;;;;40.60;21.00;;;;;;;6.68;72.48;101173.83;124972;1099;104242;-78
2024/03/11 08:03:41;;;;;;;38.33;19.73;;;;;;;6.79;72.44;101178.92;124858;1098;104322;-78
2024/03/11 08:06:14;;;;;;;39.73;20.20;;;;;;;6.89;72.60;101187.28;125308;1099;102815;-79
2024/03/11 08:08:45;;;;;;;38.10;20.20;;;;;;;6.99;72.52;101163.56;125186;1099;103640;-80
2024/03/11 08:11:18;;;;;;;37.90;19.07;;;;;;;7.11;72.27;101172.14;125473;1099;103089;-80
2024/03/11 08:13:51;;;;;;;38.40;19.97;;;;;;;7.16;72.67;101165.47;125016;1099;103531;-80
2024/03/11 08:16:23;;;;;;;36.60;18.43;;;;;;;7.23;73.60;101164.16;125687;1098;104242;-77
2024/03/11 08:18:55;;;;;;;39.97;20.57;;;;;;;7.28;72.61;101167.04;125266;1099;104249;-78
2024/03/11 08:21:29;;;;;;;33.33;17.87;;;;;;;7.36;72.38;101171.00;126181;1099;104095;-78
2024/03/11 08:24:04;;;;;;;37.00;18.90;;;;;;;7.42;72.64;101168.75;125490;1099;104239;-78
2024/03/11 08:26:43;;;;;;;39.13;18.73;;;;;;;7.49;72.29;101160.45;125529;1099;102302;-77
2024/03/11 08:29:14;;;;;;;35.33;18.87;;;;;;;7.55;72.64;101184.31;125196;1099;103289;-78
2024/03/11 08:31:47;;;;;;;40.77;19.37;;;;;;;7.57;71.83;101179.17;124869;1099;103617;-78
2024/03/11 08:34:20;;;;;;;38.23;19.53;;;;;;;7.56;72.06;101180.01;124859;1099;103069;-78
2024/03/11 08:36:52;;;;;;;37.80;19.10;;;;;;;7.59;71.85;101181.88;125047;1099;102734;-78
2024/03/11 08:39:26;;;;;;;36.30;18.83;;;;;;;7.62;71.80;101184.67;124690;1098;103329;-78
2024/03/11 08:41:57;;;;;;;;;;;;;;;7.65;73.07;101177.02;124994;1100;103296;-77
2024/03/11 08:44:29;;;;;;;35.43;18.30;;;;;;;7.68;71.72;101171.97;125078;1099;103164;-77
2024/03/11 08:47:00;;;;;;;36.50;18.37;;;;;;;7.68;71.68;101174.58;125428;1099;104236;-78
2024/03/11 08:49:32;;;;;;;38.17;18.07;;;;;;;7.64;72.14;101185.69;125093;1099;104409;-78
2024/03/11 08:52:06;;;;;;;34.00;17.40;;;;;;;7.64;71.90;101191.80;124829;1099;104241;-78
2024/03/11 08:54:40;;;;;;;37.50;19.57;;;;;;;7.67;71.34;101188.48;125423;1099;104383;-79
2024/03/11 08:57:13;;;;;;;37.23;18.57;;;;;;;7.69;71.86;101192.95;125073;1099;104197;-79
2024/03/11 08:59:45;;;;;;;39.47;19.90;;;;;;;7.71;71.65;101182.59;124981;1099;103563;-79
2024/03/11 09:02:18;;;;;;;42.73;19.93;;;;;;;7.72;71.90;101173.95;124958;1099;103601;-78
2024/03/11 09:04:50;;;;;;;34.95;18.57;;;;;;;7.73;72.23;101183.61;125069;1098;104245;-78
2024/03/11 09:07:22;;;;;;;34.73;17.93;;;;;;;7.75;71.61;101184.59;125438;1099;104205;-79
2024/03/11 09:09:56;;;;;;;38.93;18.83;;;;;;;7.78;71.52;101192.60;125628;1099;103146;-79
2024/03/11 09:12:29;;;;;;;37.70;19.17;;;;;;;7.87;71.37;101187.91;125384;1099;103649;-78
2024/03/11 09:15:00;;;;;;;34.33;19.50;;;;;;;7.97;71.66;101191.94;125637;1098;102870;-79
2024/03/11 09:17:32;;;;;;;36.83;18.27;;;;;;;8.00;71.79;101191.23;125193;1099;102840;-79
2024/03/11 09:20:08;;;;;;;35.70;18.80;;;;;;;8.05;71.68;101195.00;125259;1099;102910;-79
2024/03/11 09:22:40;;;;;;;37.40;17.97;;;;;;;8.09;71.83;101203.09;125201;1098;103076;-79
2024/03/11 09:25:17;;;;;;;33.40;17.33;;;;;;;8.17;71.59;101190.46;125173;1099;103193;-79
2024/03/11 09:27:51;;;;;;;34.17;17.67;;;;;;;8.21;71.63;101201.98;125053;1099;102960;-80
2024/03/11 09:30:28;;;;;;;36.30;18.20;;;;;;;8.22;71.58;101196.84;125256;1099;103031;-79
2024/03/11 09:33:00;;;;;;;37.70;18.50;;;;;;;8.35;71.43;101202.77;125120;1099;102758;-79
2024/03/11 09:35:32;;;;;;;34.15;18.05;;;;;;;8.45;71.46;101194.66;124983;1099;104243;-78
2024/03/11 09:38:03;;;;;;;37.93;17.83;;;;;;;8.54;70.97;101202.09;124795;1099;103274;-79
2024/03/11 09:40:36;;;;;;;34.60;17.80;;;;;;;8.66;71.11;101196.65;124616;1099;104339;-79
2024/03/11 09:43:11;;;;;;;33.83;16.60;;;;;;;8.80;70.50;101211.38;124599;1099;104604;-79
2024/03/11 09:45:44;;;;;;;37.07;17.03;;;;;;;8.90;70.45;101203.21;124966;1099;104379;-79
2024/03/11 09:48:27;;;;;;;34.85;17.55;;;;;;;9.04;70.69;101203.03;125819;1098;104313;-79
2024/03/11 09:51:01;;;;;;;33.67;15.80;;;;;;;9.13;70.33;101200.89;124988;1099;103692;-79
2024/03/11 09:53:34;;;;;;;33.30;16.50;;;;;;;9.20;70.25;101203.03;125207;1099;102904;-79
2024/03/11 09:56:08;;;;;;;33.83;16.33;;;;;;;9.30;70.16;101202.70;124893;1099;104245;-79
2024/03/11 09:58:44;;;;;;;34.70;17.67;;;;;;;9.43;69.33;101195.48;124775;1099;104236;-78
2024/03/11 10:01:17;;;;;;;36.33;17.37;;;;;;;9.52;69.75;101195.92;125081;1099;104251;-79
2024/03/11 10:03:52;;;;;;;36.07;17.33;;;;;;;9.58;68.96;101195.34;124558;1099;104325;-79
2024/03/11 10:06:27;;;;;;;33.30;16.85;;;;;;;9.64;68.02;101195.66;124963;1099;104402;-79
2024/03/11 10:08:59;;;;;;;32.93;16.50;;;;;;;9.70;67.96;101203.83;125294;1099;104224;-79
2024/03/11 10:11:32;;;;;;;33.27;17.83;;;;;;;9.73;68.20;101195.23;125161;1098;104215;-78
2024/03/11 10:14:22;;;;;;;34.50;16.70;;;;;;;9.80;67.86;101197.32;124890;1099;104240;-79
2024/03/11 10:16:53;;;;;;;32.10;16.70;;;;;;;9.93;67.69;101197.12;124467;1099;102126;-79
2024/03/11 10:19:28;;;;;;;34.97;15.47;;;;;;;9.88;67.35;101196.89;124832;1099;104207;-80
2024/03/11 10:22:04;;;;;;;33.57;15.93;;;;;;;9.88;66.39;101188.14;125029;1099;104256;-78
2024/03/11 10:24:38;;;;;;;33.40;17.27;;;;;;;9.90;67.51;101196.97;125145;1099;104235;-79
2024/03/11 10:27:20;;;;;;;32.63;16.17;;;;;;;9.95;66.43;101189.33;124623;1099;104147;-78
2024/03/11 10:29:54;;;;;;;32.93;17.00;;;;;;;9.90;65.83;101183.86;124936;1099;102323;-78
2024/03/11 10:32:38;;;;;;;33.20;16.70;;;;;;;9.92;66.23;101187.45;124943;1098;104197;-79
2024/03/11 10:35:10;;;;;;;;;;;;;;;9.87;64.92;101184.59;124984;1099;104275;-79
2024/03/11 10:37:43;;;;;;;33.75;16.25;;;;;;;9.85;65.43;101183.63;124517;1099;110900;-79
2024/03/11 10:40:18;;;;;;;35.13;16.43;;;;;;;9.86;66.48;101181.90;124897;1099;104168;-79
2024/03/11 10:42:53;;;;;;;34.70;16.23;;;;;;;9.87;65.46;101183.71;124511;1099;103947;-78
2024/03/11 10:45:35;;;;;;;30.03;16.90;;;;;;;9.88;66.36;101183.78;125788;1099;103131;-79
2024/03/11 10:48:15;;;;;;;33.37;16.20;;;;;;;9.96;66.26;101176.30;126499;1098;102392;-80
2024/03/11 10:50:49;;;;;;;30.27;14.83;;;;;;;9.94;65.55;101180.58;125738;1098;102930;-80
2024/03/11 10:53:23;;;;;;;33.98;15.98;;;;;;;9.90;65.75;101176.00;125067;1099;102725;-79
2024/03/11 10:55:57;;;;;;;31.83;15.83;;;;;;;9.89;65.75;101182.05;124479;1099;104166;-79
2024/03/11 10:58:33;;;;;;;31.17;16.70;;;;;;;9.82;65.15;101175.62;124486;1099;102966;-79
2024/03/11 11:01:05;;;;;;;27.10;12.97;;;;;;;9.71;65.02;101182.06;124942;1099;104242;-79
2024/03/11 11:03:44;;;;;;;31.27;15.10;;;;;;;9.63;65.51;101180.75;124814;1099;104249;-78
2024/03/11 11:06:21;;;;;;;33.77;15.67;;;;;;;9.58;65.55;101172.66;125340;1099;104274;-80
2024/03/11 11:08:53;;;;;;;34.73;16.27;;;;;;;9.54;65.95;101174.23;125374;1099;104272;-80
2024/03/11 11:11:26;;;;;;;31.13;16.20;;;;;;;9.50;66.09;101168.76;124981;1099;104168;-79
2024/03/11 11:13:58;;;;;;;37.87;15.70;;;;;;;9.49;66.09;101173.11;125254;1098;103323;-79
2024/03/11 11:16:31;;;;;;;33.23;16.37;;;;;;;9.47;66.52;101168.60;125293;1098;103122;-79
2024/03/11 11:19:03;;;;;;;33.73;16.27;;;;;;;9.47;66.58;101171.22;125305;1099;103498;-79
2024/03/11 11:21:35;;;;;;;32.83;15.57;;;;;;;9.45;66.60;101170.26;125101;1099;103475;-79
2024/03/11 11:24:29;;;;;;;32.57;16.63;;;;;;;9.42;66.75;101172.72;125231;1099;103080;-79
2024/03/11 11:27:05;;;;;;;34.43;16.42;;;;;;;9.39;66.28;101170.83;125086;1099;103571;-79